sensor_id;sensor_type;location;lat;lon;timestamp;pressure;altitude;pressure_sealevel;temperature;humidity
28306;BME280;7516;43.570;1.448;2023-03-14T00:02:14;99175.09;;;10.15;100.00
28306;BME280;7516;43.570;1.448;2023-03-14T00:04:41;99185.06;;;10.20;100.00
28306;BME280;7516;43.570;1.448;2023-03-14T00:07:11;99188.38;;;10.29;100.00
28306;BME280;7516;43.570;1.448;2023-03-14T00:09:38;99187.72;;;10.41;100.00
28306;BME280;7516;43.570;1.448;2023-03-14T00:12:06;99189.59;;;10.47;100.00
28306;BME280;7516;43.570;1.448;2023-03-14T00:14:35;99183.94;;;10.29;100.00
28306;BME280;7516;43.570;1.448;2023-03-14T00:17:03;99177.81;;;10.22;100.00
28306;BME280;7516;43.570;1.448;2023-03-14T00:19:30;99180.81;;;10.19;100.00
28306;BME280;7516;43.570;1.448;2023-03-14T00:21:58;99180.50;;;10.14;100.00
28306;BME280;7516;43.570;1.448;2023-03-14T00:24:25;99187.00;;;10.03;100.00
28306;BME280;7516;43.570;1.448;2023-03-14T00:26:53;99180.41;;;10.07;100.00
28306;BME280;7516;43.570;1.448;2023-03-14T00:29:20;99183.50;;;10.11;100.00
28306;BME280;7516;43.570;1.448;2023-03-14T00:31:49;99179.44;;;10.23;100.00
28306;BME280;7516;43.570;1.448;2023-03-14T00:34:16;99181.06;;;10.24;100.00
28306;BME280;7516;43.570;1.448;2023-03-14T00:36:45;99178.50;;;10.31;100.00
28306;BME280;7516;43.570;1.448;2023-03-14T00:39:12;99182.81;;;10.38;100.00
28306;BME280;7516;43.570;1.448;2023-03-14T00:41:40;99182.41;;;10.35;100.00
28306;BME280;7516;43.570;1.448;2023-03-14T00:44:07;99177.69;;;10.45;100.00
28306;BME280;7516;43.570;1.448;2023-03-14T00:46:35;99179.22;;;10.39;100.00
28306;BME280;7516;43.570;1.448;2023-03-14T00:49:03;99172.28;;;10.32;100.00
28306;BME280;7516;43.570;1.448;2023-03-14T00:51:31;99169.34;;;10.20;100.00
28306;BME280;7516;43.570;1.448;2023-03-14T00:54:00;99172.47;;;10.15;100.00
28306;BME280;7516;43.570;1.448;2023-03-14T00:56:27;99167.34;;;10.07;100.00
28306;BME280;7516;43.570;1.448;2023-03-14T00:58:55;99170.75;;;10.08;100.00
28306;BME280;7516;43.570;1.448;2023-03-14T01:01:24;99170.75;;;10.08;100.00
28306;BME280;7516;43.570;1.448;2023-03-14T01:03:53;99166.25;;;10.02;100.00
28306;BME280;7516;43.570;1.448;2023-03-14T01:06:24;99169.22;;;9.99;100.00
28306;BME280;7516;43.570;1.448;2023-03-14T01:08:52;99169.34;;;9.91;100.00
28306;BME280;7516;43.570;1.448;2023-03-14T01:11:22;99165.34;;;9.95;100.00
28306;BME280;7516;43.570;1.448;2023-03-14T01:13:49;99164.00;;;9.99;100.00
28306;BME280;7516;43.570;1.448;2023-03-14T01:16:18;99177.16;;;10.05;100.00
28306;BME280;7516;43.570;1.448;2023-03-14T01:18:47;99161.66;;;10.18;100.00
28306;BME280;7516;43.570;1.448;2023-03-14T01:21:16;99171.03;;;10.28;100.00
28306;BME280;7516;43.570;1.448;2023-03-14T01:23:46;99164.25;;;10.33;100.00
28306;BME280;7516;43.570;1.448;2023-03-14T01:26:15;99168.69;;;10.33;100.00
28306;BME280;7516;43.570;1.448;2023-03-14T01:28:45;99163.72;;;10.38;100.00
28306;BME280;7516;43.570;1.448;2023-03-14T01:31:13;99158.03;;;10.34;99.44
28306;BME280;7516;43.570;1.448;2023-03-14T01:33:42;99170.56;;;10.39;98.35
28306;BME280;7516;43.570;1.448;2023-03-14T01:36:10;99164.84;;;10.50;97.27
28306;BME280;7516;43.570;1.448;2023-03-14T01:38:39;99164.53;;;10.60;96.66
28306;BME280;7516;43.570;1.448;2023-03-14T01:41:12;99156.91;;;10.65;96.31
28306;BME280;7516;43.570;1.448;2023-03-14T01:43:40;99155.81;;;10.74;95.31
28306;BME280;7516;43.570;1.448;2023-03-14T01:46:36;99167.09;;;10.74;93.17
28306;BME280;7516;43.570;1.448;2023-03-14T01:49:13;99169.22;;;10.85;93.05
28306;BME280;7516;43.570;1.448;2023-03-14T01:51:46;99161.63;;;10.90;91.63
28306;BME280;7516;43.570;1.448;2023-03-14T01:54:20;99165.13;;;10.98;93.09
28306;BME280;7516;43.570;1.448;2023-03-14T01:56:55;99183.47;;;10.98;92.82
28306;BME280;7516;43.570;1.448;2023-03-14T01:59:24;99140.59;;;11.05;91.53
28306;BME280;7516;43.570;1.448;2023-03-14T02:01:55;99201.38;;;11.15;90.73
28306;BME280;7516;43.570;1.448;2023-03-14T02:04:23;99157.84;;;11.21;89.71
28306;BME280;7516;43.570;1.448;2023-03-14T02:06:58;99154.66;;;11.25;89.18
28306;BME280;7516;43.570;1.448;2023-03-14T02:09:26;99157.59;;;11.44;86.80
28306;BME280;7516;43.570;1.448;2023-03-14T02:11:55;99155.19;;;11.42;87.52
28306;BME280;7516;43.570;1.448;2023-03-14T02:14:29;99166.28;;;11.44;87.77
28306;BME280;7516;43.570;1.448;2023-03-14T02:16:57;99144.38;;;11.52;88.23
28306;BME280;7516;43.570;1.448;2023-03-14T02:19:34;99145.59;;;11.56;87.00
28306;BME280;7516;43.570;1.448;2023-03-14T02:22:07;99141.59;;;11.60;86.99
28306;BME280;7516;43.570;1.448;2023-03-14T02:24:40;99149.25;;;11.61;88.25
28306;BME280;7516;43.570;1.448;2023-03-14T02:27:12;99145.22;;;11.59;87.42
28306;BME280;7516;43.570;1.448;2023-03-14T02:29:47;99144.78;;;11.55;88.25
28306;BME280;7516;43.570;1.448;2023-03-14T02:32:17;99145.97;;;11.53;88.91
28306;BME280;7516;43.570;1.448;2023-03-14T02:34:48;99139.13;;;11.52;88.51
28306;BME280;7516;43.570;1.448;2023-03-14T02:37:19;99147.59;;;11.54;87.70
28306;BME280;7516;43.570;1.448;2023-03-14T02:39:47;99143.97;;;11.55;87.48
28306;BME280;7516;43.570;1.448;2023-03-14T02:42:17;99138.31;;;11.51;87.17
28306;BME280;7516;43.570;1.448;2023-03-14T02:44:52;99150.84;;;11.56;88.01
28306;BME280;7516;43.570;1.448;2023-03-14T02:47:26;99150.47;;;11.59;87.86
28306;BME280;7516;43.570;1.448;2023-03-14T02:49:59;99193.84;;;11.61;87.40
28306;BME280;7516;43.570;1.448;2023-03-14T02:52:27;99186.34;;;11.52;87.90
28306;BME280;7516;43.570;1.448;2023-03-14T02:54:55;99184.25;;;11.19;89.41
28306;BME280;7516;43.570;1.448;2023-03-14T02:57:24;99180.47;;;11.01;90.03
28306;BME280;7516;43.570;1.448;2023-03-14T02:59:51;99165.81;;;11.06;89.47
28306;BME280;7516;43.570;1.448;2023-03-14T03:02:19;99161.16;;;11.08;88.55
28306;BME280;7516;43.570;1.448;2023-03-14T03:04:46;99155.19;;;11.14;87.97
28306;BME280;7516;43.570;1.448;2023-03-14T03:07:14;99161.91;;;11.23;85.79
28306;BME280;7516;43.570;1.448;2023-03-14T03:09:41;99169.19;;;11.28;84.22
28306;BME280;7516;43.570;1.448;2023-03-14T03:12:09;99157.34;;;11.32;82.58
28306;BME280;7516;43.570;1.448;2023-03-14T03:14:37;99167.25;;;11.37;82.57
28306;BME280;7516;43.570;1.448;2023-03-14T03:17:05;99160.38;;;11.36;83.03
28306;BME280;7516;43.570;1.448;2023-03-14T03:19:35;99148.50;;;11.40;81.85
28306;BME280;7516;43.570;1.448;2023-03-14T03:22:02;99154.78;;;11.45;81.71
28306;BME280;7516;43.570;1.448;2023-03-14T03:24:30;99160.47;;;11.49;80.58
28306;BME280;7516;43.570;1.448;2023-03-14T03:26:58;99179.69;;;11.56;78.94
28306;BME280;7516;43.570;1.448;2023-03-14T03:29:25;99180.16;;;11.59;78.90
28306;BME280;7516;43.570;1.448;2023-03-14T03:31:54;99226.97;;;11.62;79.14
28306;BME280;7516;43.570;1.448;2023-03-14T03:34:22;99231.84;;;11.65;78.79
28306;BME280;7516;43.570;1.448;2023-03-14T03:36:49;99183.19;;;11.63;80.73
28306;BME280;7516;43.570;1.448;2023-03-14T03:39:17;99185.19;;;11.61;80.66
28306;BME280;7516;43.570;1.448;2023-03-14T03:41:45;99210.19;;;11.57;81.53
28306;BME280;7516;43.570;1.448;2023-03-14T03:44:12;99253.94;;;11.50;82.85
28306;BME280;7516;43.570;1.448;2023-03-14T03:46:40;99213.16;;;11.47;83.41
28306;BME280;7516;43.570;1.448;2023-03-14T03:49:09;99214.91;;;11.40;83.84
28306;BME280;7516;43.570;1.448;2023-03-14T03:51:36;99222.72;;;11.34;84.11
28306;BME280;7516;43.570;1.448;2023-03-14T03:54:04;99217.22;;;11.28;84.56
28306;BME280;7516;43.570;1.448;2023-03-14T03:56:31;99213.84;;;11.35;84.78
28306;BME280;7516;43.570;1.448;2023-03-14T03:58:58;99204.78;;;11.37;83.89
28306;BME280;7516;43.570;1.448;2023-03-14T04:01:26;99203.97;;;11.37;83.79
28306;BME280;7516;43.570;1.448;2023-03-14T04:03:53;99249.19;;;11.39;83.92
28306;BME280;7516;43.570;1.448;2023-03-14T04:06:22;99224.78;;;11.38;84.17
28306;BME280;7516;43.570;1.448;2023-03-14T04:08:50;99248.69;;;11.28;85.00
28306;BME280;7516;43.570;1.448;2023-03-14T04:11:17;99245.69;;;11.10;87.39
28306;BME280;7516;43.570;1.448;2023-03-14T04:13:45;99244.44;;;10.85;90.78
28306;BME280;7516;43.570;1.448;2023-03-14T04:16:15;99264.06;;;10.74;91.86
28306;BME280;7516;43.570;1.448;2023-03-14T04:18:43;99253.16;;;10.71;92.25
28306;BME280;7516;43.570;1.448;2023-03-14T04:21:11;99260.84;;;10.57;95.14
28306;BME280;7516;43.570;1.448;2023-03-14T04:23:40;99270.63;;;10.34;98.80
28306;BME280;7516;43.570;1.448;2023-03-14T04:26:08;99263.19;;;10.08;100.00
28306;BME280;7516;43.570;1.448;2023-03-14T04:28:35;99259.22;;;9.98;100.00
28306;BME280;7516;43.570;1.448;2023-03-14T04:31:07;99247.03;;;9.90;100.00
28306;BME280;7516;43.570;1.448;2023-03-14T04:33:35;99257.03;;;9.87;100.00
28306;BME280;7516;43.570;1.448;2023-03-14T04:36:04;99301.34;;;9.88;100.00
28306;BME280;7516;43.570;1.448;2023-03-14T04:38:32;99289.72;;;9.91;100.00
28306;BME280;7516;43.570;1.448;2023-03-14T04:41:02;99276.63;;;9.91;100.00
28306;BME280;7516;43.570;1.448;2023-03-14T04:43:30;99289.72;;;9.91;100.00
28306;BME280;7516;43.570;1.448;2023-03-14T04:45:58;99293.97;;;9.92;100.00
28306;BME280;7516;43.570;1.448;2023-03-14T04:48:26;99309.38;;;9.87;100.00
28306;BME280;7516;43.570;1.448;2023-03-14T04:50:54;99304.38;;;9.77;100.00
28306;BME280;7516;43.570;1.448;2023-03-14T04:53:21;99303.94;;;9.73;100.00
28306;BME280;7516;43.570;1.448;2023-03-14T04:55:49;99305.44;;;9.68;100.00
28306;BME280;7516;43.570;1.448;2023-03-14T04:58:19;99315.13;;;9.67;100.00
28306;BME280;7516;43.570;1.448;2023-03-14T05:00:48;99313.19;;;9.61;100.00
28306;BME280;7516;43.570;1.448;2023-03-14T05:03:15;99324.94;;;9.65;100.00
28306;BME280;7516;43.570;1.448;2023-03-14T05:05:43;99310.22;;;9.64;100.00
28306;BME280;7516;43.570;1.448;2023-03-14T05:08:11;99314.47;;;9.65;100.00
28306;BME280;7516;43.570;1.448;2023-03-14T05:10:39;99330.28;;;9.72;100.00
28306;BME280;7516;43.570;1.448;2023-03-14T05:13:06;99322.19;;;9.81;100.00
28306;BME280;7516;43.570;1.448;2023-03-14T05:15:35;99336.81;;;9.91;100.00
28306;BME280;7516;43.570;1.448;2023-03-14T05:18:03;99321.38;;;9.96;100.00
28306;BME280;7516;43.570;1.448;2023-03-14T05:20:31;99335.13;;;9.98;100.00
28306;BME280;7516;43.570;1.448;2023-03-14T05:22:58;99324.13;;;10.02;100.00
28306;BME280;7516;43.570;1.448;2023-03-14T05:25:26;99328.56;;;10.02;100.00
28306;BME280;7516;43.570;1.448;2023-03-14T05:27:54;99345.50;;;10.06;100.00
28306;BME280;7516;43.570;1.448;2023-03-14T05:30:22;99310.03;;;10.03;100.00
28306;BME280;7516;43.570;1.448;2023-03-14T05:32:51;99324.13;;;10.02;100.00
28306;BME280;7516;43.570;1.448;2023-03-14T05:35:18;99333.78;;;10.02;100.00
28306;BME280;7516;43.570;1.448;2023-03-14T05:37:46;99329.63;;;10.07;100.00
28306;BME280;7516;43.570;1.448;2023-03-14T05:40:13;99319.34;;;10.06;100.00
28306;BME280;7516;43.570;1.448;2023-03-14T05:42:41;99334.88;;;10.07;100.00
28306;BME280;7516;43.570;1.448;2023-03-14T05:45:09;99332.72;;;10.11;100.00
28306;BME280;7516;43.570;1.448;2023-03-14T05:47:36;99332.72;;;10.11;100.00
28306;BME280;7516;43.570;1.448;2023-03-14T05:50:06;99322.69;;;10.14;100.00
28306;BME280;7516;43.570;1.448;2023-03-14T05:52:33;99341.84;;;10.15;100.00
28306;BME280;7516;43.570;1.448;2023-03-14T05:55:01;99324.81;;;10.19;100.00
28306;BME280;7516;43.570;1.448;2023-03-14T05:57:28;99312.72;;;10.18;100.00
28306;BME280;7516;43.570;1.448;2023-03-14T05:59:56;99334.91;;;10.22;100.00
28306;BME280;7516;43.570;1.448;2023-03-14T06:02:23;99356.25;;;10.19;100.00
28306;BME280;7516;43.570;1.448;2023-03-14T06:04:51;99367.69;;;10.18;100.00
28306;BME280;7516;43.570;1.448;2023-03-14T06:07:20;99374.63;;;10.11;100.00
28306;BME280;7516;43.570;1.448;2023-03-14T06:09:48;99391.25;;;9.95;100.00
28306;BME280;7516;43.570;1.448;2023-03-14T06:12:15;99397.09;;;9.82;100.00
28306;BME280;7516;43.570;1.448;2023-03-14T06:14:43;99397.16;;;9.74;100.00
28306;BME280;7516;43.570;1.448;2023-03-14T06:17:10;99392.97;;;9.65;100.00
28306;BME280;7516;43.570;1.448;2023-03-14T06:19:38;99412.41;;;9.63;100.00
28306;BME280;7516;43.570;1.448;2023-03-14T06:22:05;99412.25;;;9.64;100.00
28306;BME280;7516;43.570;1.448;2023-03-14T06:24:34;99410.13;;;9.60;100.00
28306;BME280;7516;43.570;1.448;2023-03-14T06:27:02;99408.22;;;9.54;100.00
28306;BME280;7516;43.570;1.448;2023-03-14T06:29:30;99415.75;;;9.57;100.00
28306;BME280;7516;43.570;1.448;2023-03-14T06:31:58;99422.13;;;9.54;100.00
28306;BME280;7516;43.570;1.448;2023-03-14T06:34:25;99420.31;;;9.55;100.00
28306;BME280;7516;43.570;1.448;2023-03-14T06:36:52;99425.38;;;9.56;100.00
28306;BME280;7516;43.570;1.448;2023-03-14T06:39:20;99427.63;;;9.59;100.00
28306;BME280;7516;43.570;1.448;2023-03-14T06:41:49;99424.03;;;9.60;100.00
28306;BME280;7516;43.570;1.448;2023-03-14T06:44:16;99432.53;;;9.62;100.00
28306;BME280;7516;43.570;1.448;2023-03-14T06:46:44;99434.44;;;9.68;100.00
28306;BME280;7516;43.570;1.448;2023-03-14T06:49:11;99435.03;;;9.78;100.00
28306;BME280;7516;43.570;1.448;2023-03-14T06:51:39;99446.97;;;9.81;100.00
28306;BME280;7516;43.570;1.448;2023-03-14T06:54:06;99427.91;;;9.72;100.00
28306;BME280;7516;43.570;1.448;2023-03-14T06:56:34;99465.84;;;9.68;100.00
28306;BME280;7516;43.570;1.448;2023-03-14T06:59:03;99446.59;;;9.61;100.00
28306;BME280;7516;43.570;1.448;2023-03-14T07:01:31;99453.78;;;9.59;100.00
28306;BME280;7516;43.570;1.448;2023-03-14T07:04:01;99464.94;;;9.53;100.00
28306;BME280;7516;43.570;1.448;2023-03-14T07:06:28;99467.75;;;9.52;100.00
28306;BME280;7516;43.570;1.448;2023-03-14T07:08:56;99468.91;;;9.49;100.00
28306;BME280;7516;43.570;1.448;2023-03-14T07:11:24;99477.75;;;9.48;100.00
28306;BME280;7516;43.570;1.448;2023-03-14T07:13:52;99490.66;;;9.50;100.00
28306;BME280;7516;43.570;1.448;2023-03-14T07:16:21;99492.44;;;9.49;100.00
28306;BME280;7516;43.570;1.448;2023-03-14T07:18:48;99489.84;;;9.49;100.00
28306;BME280;7516;43.570;1.448;2023-03-14T07:21:16;99489.03;;;9.49;100.00
28306;BME280;7516;43.570;1.448;2023-03-14T07:23:43;99494.53;;;9.54;100.00
28306;BME280;7516;43.570;1.448;2023-03-14T07:26:12;99494.38;;;9.55;100.00
28306;BME280;7516;43.570;1.448;2023-03-14T07:28:39;99499.72;;;9.62;100.00
28306;BME280;7516;43.570;1.448;2023-03-14T07:31:07;99491.50;;;9.73;100.00
28306;BME280;7516;43.570;1.448;2023-03-14T07:33:36;99508.25;;;9.87;100.00
28306;BME280;7516;43.570;1.448;2023-03-14T07:36:04;99504.31;;;9.91;100.00
28306;BME280;7516;43.570;1.448;2023-03-14T07:38:32;99517.69;;;9.96;100.00
28306;BME280;7516;43.570;1.448;2023-03-14T07:41:00;99524.56;;;9.97;100.00
28306;BME280;7516;43.570;1.448;2023-03-14T07:43:28;99525.88;;;10.01;100.00
28306;BME280;7516;43.570;1.448;2023-03-14T07:45:55;99549.06;;;10.04;100.00
28306;BME280;7516;43.570;1.448;2023-03-14T07:48:23;99540.69;;;10.08;100.00
28306;BME280;7516;43.570;1.448;2023-03-14T07:50:55;99547.03;;;10.14;100.00
28306;BME280;7516;43.570;1.448;2023-03-14T07:53:23;99564.53;;;10.22;100.00
28306;BME280;7516;43.570;1.448;2023-03-14T07:55:51;99539.81;;;10.24;100.00
28306;BME280;7516;43.570;1.448;2023-03-14T07:58:19;99560.06;;;10.30;100.00
28306;BME280;7516;43.570;1.448;2023-03-14T08:00:47;99548.09;;;10.36;100.00
28306;BME280;7516;43.570;1.448;2023-03-14T08:03:15;99560.66;;;10.40;100.00
28306;BME280;7516;43.570;1.448;2023-03-14T08:05:43;99562.09;;;10.43;100.00
28306;BME280;7516;43.570;1.448;2023-03-14T08:08:12;99569.44;;;10.47;100.00
28306;BME280;7516;43.570;1.448;2023-03-14T08:10:39;99578.59;;;10.51;100.00
28306;BME280;7516;43.570;1.448;2023-03-14T08:13:08;99569.19;;;10.57;100.00
28306;BME280;7516;43.570;1.448;2023-03-14T08:15:36;99578.63;;;10.66;100.00
28306;BME280;7516;43.570;1.448;2023-03-14T08:18:05;99622.28;;;10.74;100.00
28306;BME280;7516;43.570;1.448;2023-03-14T08:20:33;99598.19;;;10.78;100.00
28306;BME280;7516;43.570;1.448;2023-03-14T08:23:01;99594.34;;;10.89;100.00
28306;BME280;7516;43.570;1.448;2023-03-14T08:25:30;99605.41;;;10.99;100.00
28306;BME280;7516;43.570;1.448;2023-03-14T08:27:58;99623.88;;;11.06;100.00
28306;BME280;7516;43.570;1.448;2023-03-14T08:30:25;99610.41;;;11.23;100.00
28306;BME280;7516;43.570;1.448;2023-03-14T08:32:53;99625.09;;;11.32;100.00
28306;BME280;7516;43.570;1.448;2023-03-14T08:35:20;99625.00;;;11.41;100.00
28306;BME280;7516;43.570;1.448;2023-03-14T08:37:48;99644.28;;;11.48;100.00
28306;BME280;7516;43.570;1.448;2023-03-14T08:40:16;99650.59;;;11.53;97.21
28306;BME280;7516;43.570;1.448;2023-03-14T08:42:45;99622.84;;;11.59;97.53
28306;BME280;7516;43.570;1.448;2023-03-14T08:45:14;99622.75;;;11.67;97.71
28306;BME280;7516;43.570;1.448;2023-03-14T08:47:43;99650.00;;;11.66;96.72
28306;BME280;7516;43.570;1.448;2023-03-14T08:50:12;99636.88;;;11.66;97.78
28306;BME280;7516;43.570;1.448;2023-03-14T08:52:39;99613.25;;;11.66;98.30
28306;BME280;7516;43.570;1.448;2023-03-14T08:55:08;99644.47;;;11.61;98.08
28306;BME280;7516;43.570;1.448;2023-03-14T08:57:36;99627.72;;;11.62;97.98
28306;BME280;7516;43.570;1.448;2023-03-14T09:00:06;99641.22;;;11.59;98.22
28306;BME280;7516;43.570;1.448;2023-03-14T09:02:36;99627.97;;;11.52;96.90
28306;BME280;7516;43.570;1.448;2023-03-14T09:05:05;99638.94;;;11.56;98.10
28306;BME280;7516;43.570;1.448;2023-03-14T09:07:32;99634.50;;;11.56;98.29
28306;BME280;7516;43.570;1.448;2023-03-14T09:10:00;99637.06;;;11.64;98.36
28306;BME280;7516;43.570;1.448;2023-03-14T09:12:27;99634.59;;;11.63;98.00
28306;BME280;7516;43.570;1.448;2023-03-14T09:14:55;99644.56;;;11.67;96.91
28306;BME280;7516;43.570;1.448;2023-03-14T09:17:24;99632.63;;;11.65;95.89
28306;BME280;7516;43.570;1.448;2023-03-14T09:19:52;99660.84;;;11.63;95.61
28306;BME280;7516;43.570;1.448;2023-03-14T09:22:19;99708.81;;;11.57;97.80
28306;BME280;7516;43.570;1.448;2023-03-14T09:24:47;99688.44;;;11.07;98.53
28306;BME280;7516;43.570;1.448;2023-03-14T09:27:15;99704.88;;;9.92;100.00
28306;BME280;7516;43.570;1.448;2023-03-14T09:29:42;99695.13;;;9.53;100.00
28306;BME280;7516;43.570;1.448;2023-03-14T09:32:09;99695.63;;;9.24;100.00
28306;BME280;7516;43.570;1.448;2023-03-14T09:34:38;99678.16;;;9.00;100.00
28306;BME280;7516;43.570;1.448;2023-03-14T09:37:06;99709.38;;;9.02;100.00
28306;BME280;7516;43.570;1.448;2023-03-14T09:39:33;99719.50;;;8.97;100.00
28306;BME280;7516;43.570;1.448;2023-03-14T09:42:04;99725.03;;;8.86;100.00
28306;BME280;7516;43.570;1.448;2023-03-14T09:44:33;99706.59;;;8.95;100.00
28306;BME280;7516;43.570;1.448;2023-03-14T09:47:04;99707.56;;;9.11;100.00
28306;BME280;7516;43.570;1.448;2023-03-14T09:49:34;99698.59;;;9.29;100.00
28306;BME280;7516;43.570;1.448;2023-03-14T09:52:11;99710.69;;;9.47;100.00
28306;BME280;7516;43.570;1.448;2023-03-14T09:54:44;99707.72;;;9.66;100.00
28306;BME280;7516;43.570;1.448;2023-03-14T09:57:16;99707.53;;;9.84;100.00
28306;BME280;7516;43.570;1.448;2023-03-14T09:59:46;99711.41;;;9.96;100.00
28306;BME280;7516;43.570;1.448;2023-03-14T10:02:18;99711.06;;;9.99;100.00
28306;BME280;7516;43.570;1.448;2023-03-14T10:04:47;99717.00;;;9.93;100.00
28306;BME280;7516;43.570;1.448;2023-03-14T10:07:18;99728.59;;;9.90;100.00
28306;BME280;7516;43.570;1.448;2023-03-14T10:09:50;99721.06;;;9.87;100.00
28306;BME280;7516;43.570;1.448;2023-03-14T10:12:18;99721.22;;;9.86;100.00
28306;BME280;7516;43.570;1.448;2023-03-14T10:14:48;99718.63;;;9.94;100.00
28306;BME280;7516;43.570;1.448;2023-03-14T10:17:17;99718.25;;;10.05;100.00
28306;BME280;7516;43.570;1.448;2023-03-14T10:19:54;99723.00;;;10.17;100.00
28306;BME280;7516;43.570;1.448;2023-03-14T10:22:24;99733.44;;;10.26;100.00
28306;BME280;7516;43.570;1.448;2023-03-14T10:24:54;99734.91;;;10.28;100.00
28306;BME280;7516;43.570;1.448;2023-03-14T10:27:29;99732.88;;;10.38;100.00
28306;BME280;7516;43.570;1.448;2023-03-14T10:29:58;99731.28;;;10.37;100.00
28306;BME280;7516;43.570;1.448;2023-03-14T10:32:33;99738.59;;;10.42;100.00
28306;BME280;7516;43.570;1.448;2023-03-14T10:35:17;99745.59;;;10.49;100.00
28306;BME280;7516;43.570;1.448;2023-03-14T10:37:53;99755.72;;;10.61;100.00
28306;BME280;7516;43.570;1.448;2023-03-14T10:40:27;99756.00;;;10.66;100.00
28306;BME280;7516;43.570;1.448;2023-03-14T10:42:56;99735.19;;;10.72;100.00
28306;BME280;7516;43.570;1.448;2023-03-14T10:45:35;99742.78;;;10.90;100.00
28306;BME280;7516;43.570;1.448;2023-03-14T10:48:20;99737.72;;;11.11;100.00
28306;BME280;7516;43.570;1.448;2023-03-14T10:51:03;99729.13;;;11.17;100.00
28306;BME280;7516;43.570;1.448;2023-03-14T10:53:40;99723.56;;;11.20;100.00
28306;BME280;7516;43.570;1.448;2023-03-14T10:56:12;99712.19;;;11.28;100.00
28306;BME280;7516;43.570;1.448;2023-03-14T10:58:42;99710.59;;;11.42;100.00
28306;BME280;7516;43.570;1.448;2023-03-14T11:01:25;99719.28;;;11.42;100.00
28306;BME280;7516;43.570;1.448;2023-03-14T11:03:57;99731.28;;;11.37;100.00
28306;BME280;7516;43.570;1.448;2023-03-14T11:06:32;99825.34;;;10.94;100.00
28306;BME280;7516;43.570;1.448;2023-03-14T11:09:07;99780.03;;;8.76;100.00
28306;BME280;7516;43.570;1.448;2023-03-14T11:11:40;99764.34;;;8.68;100.00
28306;BME280;7516;43.570;1.448;2023-03-14T11:14:18;99761.47;;;8.87;100.00
28306;BME280;7516;43.570;1.448;2023-03-14T11:16:53;99760.41;;;8.72;100.00
28306;BME280;7516;43.570;1.448;2023-03-14T11:19:53;99772.91;;;8.94;100.00
28306;BME280;7516;43.570;1.448;2023-03-14T11:22:30;99754.47;;;9.04;100.00
28306;BME280;7516;43.570;1.448;2023-03-14T11:25:24;99764.78;;;9.14;100.00
28306;BME280;7516;43.570;1.448;2023-03-14T11:28:01;99751.56;;;9.23;100.00
28306;BME280;7516;43.570;1.448;2023-03-14T11:30:35;99757.41;;;9.33;100.00
28306;BME280;7516;43.570;1.448;2023-03-14T11:33:13;99765.25;;;9.41;100.00
28306;BME280;7516;43.570;1.448;2023-03-14T11:35:45;99772.78;;;9.28;100.00
28306;BME280;7516;43.570;1.448;2023-03-14T11:38:24;99771.66;;;9.23;100.00
28306;BME280;7516;43.570;1.448;2023-03-14T11:40:58;99794.50;;;9.04;100.00
28306;BME280;7516;43.570;1.448;2023-03-14T11:43:29;99771.94;;;8.95;100.00
28306;BME280;7516;43.570;1.448;2023-03-14T11:46:01;99776.34;;;9.03;100.00
28306;BME280;7516;43.570;1.448;2023-03-14T11:48:37;99759.19;;;9.00;100.00
28306;BME280;7516;43.570;1.448;2023-03-14T11:51:11;99756.28;;;9.12;100.00
28306;BME280;7516;43.570;1.448;2023-03-14T11:53:49;99784.06;;;9.21;100.00
28306;BME280;7516;43.570;1.448;2023-03-14T11:56:25;99760.69;;;9.19;100.00
28306;BME280;7516;43.570;1.448;2023-03-14T11:58:58;99766.59;;;9.29;100.00
28306;BME280;7516;43.570;1.448;2023-03-14T12:01:34;99746.47;;;9.38;100.00
28306;BME280;7516;43.570;1.448;2023-03-14T12:04:11;99740.25;;;9.55;100.00
28306;BME280;7516;43.570;1.448;2023-03-14T12:06:48;99767.06;;;9.81;100.00
28306;BME280;7516;43.570;1.448;2023-03-14T12:09:16;99750.72;;;9.71;100.00
28306;BME280;7516;43.570;1.448;2023-03-14T12:11:48;99735.97;;;9.78;100.00
28306;BME280;7516;43.570;1.448;2023-03-14T12:14:21;99728.63;;;9.74;100.00
28306;BME280;7516;43.570;1.448;2023-03-14T12:16:55;99725.19;;;9.81;100.00
28306;BME280;7516;43.570;1.448;2023-03-14T12:19:33;99722.72;;;9.88;100.00
28306;BME280;7516;43.570;1.448;2023-03-14T12:22:22;99724.97;;;9.99;100.00
28306;BME280;7516;43.570;1.448;2023-03-14T12:24:53;99737.53;;;10.12;100.00
28306;BME280;7516;43.570;1.448;2023-03-14T12:27:47;99736.25;;;10.08;100.00
28306;BME280;7516;43.570;1.448;2023-03-14T12:30:25;99729.69;;;10.04;100.00
28306;BME280;7516;43.570;1.448;2023-03-14T12:35:59;99730.22;;;9.91;100.00
28306;BME280;7516;43.570;1.448;2023-03-14T12:41:19;99705.16;;;10.05;100.00
28306;BME280;7516;43.570;1.448;2023-03-14T12:43:50;99696.66;;;10.11;100.00
28306;BME280;7516;43.570;1.448;2023-03-14T12:46:23;99701.19;;;10.25;100.00
28306;BME280;7516;43.570;1.448;2023-03-14T12:48:56;99701.44;;;10.46;100.00
28306;BME280;7516;43.570;1.448;2023-03-14T12:51:33;99701.16;;;10.64;100.00
28306;BME280;7516;43.570;1.448;2023-03-14T12:54:21;99693.06;;;10.74;100.00
28306;BME280;7516;43.570;1.448;2023-03-14T12:57:10;99692.66;;;10.85;100.00
28306;BME280;7516;43.570;1.448;2023-03-14T12:59:46;99689.75;;;10.80;100.00
28306;BME280;7516;43.570;1.448;2023-03-14T13:02:26;99696.66;;;10.81;100.00
28306;BME280;7516;43.570;1.448;2023-03-14T13:05:02;99673.66;;;10.60;100.00
28306;BME280;7516;43.570;1.448;2023-03-14T13:08:05;99677.16;;;10.52;100.00
28306;BME280;7516;43.570;1.448;2023-03-14T13:10:41;99672.94;;;10.43;100.00
28306;BME280;7516;43.570;1.448;2023-03-14T13:13:17;99655.31;;;10.37;100.00
28306;BME280;7516;43.570;1.448;2023-03-14T13:15:48;99662.91;;;10.47;100.00
28306;BME280;7516;43.570;1.448;2023-03-14T13:18:23;99654.69;;;10.58;100.00
28306;BME280;7516;43.570;1.448;2023-03-14T13:20:55;99655.75;;;10.72;100.00
28306;BME280;7516;43.570;1.448;2023-03-14T13:23:27;99652.53;;;10.84;100.00
28306;BME280;7516;43.570;1.448;2023-03-14T13:25:55;99646.34;;;11.00;100.00
28306;BME280;7516;43.570;1.448;2023-03-14T13:28:23;99639.88;;;11.11;100.00
28306;BME280;7516;43.570;1.448;2023-03-14T13:30:56;99646.03;;;11.18;100.00